sensor_id;sensor_type;location;lat;lon;timestamp;temperature;humidity
41310;DHT22;27057;51.438;-0.010;2022-12-20T00:01:15;13.10;99.90
41310;DHT22;27057;51.438;-0.010;2022-12-20T00:03:44;13.30;99.90
41310;DHT22;27057;51.438;-0.010;2022-12-20T00:06:12;13.00;99.90
41310;DHT22;27057;51.438;-0.010;2022-12-20T00:08:39;13.60;99.90
41310;DHT22;27057;51.438;-0.010;2022-12-20T00:11:07;13.30;99.90
41310;DHT22;27057;51.438;-0.010;2022-12-20T00:13:38;13.30;99.90
41310;DHT22;27057;51.438;-0.010;2022-12-20T00:16:17;13.10;99.90
41310;DHT22;27057;51.438;-0.010;2022-12-20T00:21:13;12.70;99.90
41310;DHT22;27057;51.438;-0.010;2022-12-20T00:23:41;13.30;99.90
41310;DHT22;27057;51.438;-0.010;2022-12-20T00:26:14;12.80;99.90
41310;DHT22;27057;51.438;-0.010;2022-12-20T00:28:50;13.00;99.90
41310;DHT22;27057;51.438;-0.010;2022-12-20T00:31:32;13.00;99.90
41310;DHT22;27057;51.438;-0.010;2022-12-20T00:34:02;12.90;99.90
41310;DHT22;27057;51.438;-0.010;2022-12-20T00:36:31;13.10;99.90
41310;DHT22;27057;51.438;-0.010;2022-12-20T00:39:00;13.00;99.90
41310;DHT22;27057;51.438;-0.010;2022-12-20T00:41:30;13.10;99.90
41310;DHT22;27057;51.438;-0.010;2022-12-20T00:44:04;13.10;99.90
41310;DHT22;27057;51.438;-0.010;2022-12-20T00:46:36;12.90;99.90
41310;DHT22;27057;51.438;-0.010;2022-12-20T00:49:13;13.00;99.90
41310;DHT22;27057;51.438;-0.010;2022-12-20T00:51:46;12.90;99.90
41310;DHT22;27057;51.438;-0.010;2022-12-20T00:54:13;13.00;99.90
41310;DHT22;27057;51.438;-0.010;2022-12-20T00:56:41;12.90;99.90
41310;DHT22;27057;51.438;-0.010;2022-12-20T00:59:09;12.90;99.90
41310;DHT22;27057;51.438;-0.010;2022-12-20T01:01:36;12.90;99.90
41310;DHT22;27057;51.438;-0.010;2022-12-20T01:04:04;13.00;99.90
41310;DHT22;27057;51.438;-0.010;2022-12-20T01:06:35;13.00;99.90
41310;DHT22;27057;51.438;-0.010;2022-12-20T01:09:02;13.00;99.90
41310;DHT22;27057;51.438;-0.010;2022-12-20T01:11:33;13.00;99.90
41310;DHT22;27057;51.438;-0.010;2022-12-20T01:14:03;13.00;99.90
41310;DHT22;27057;51.438;-0.010;2022-12-20T01:16:38;13.10;99.90
41310;DHT22;27057;51.438;-0.010;2022-12-20T01:19:08;13.10;99.90
41310;DHT22;27057;51.438;-0.010;2022-12-20T01:21:36;13.10;99.90
41310;DHT22;27057;51.438;-0.010;2022-12-20T01:24:06;13.20;99.90
41310;DHT22;27057;51.438;-0.010;2022-12-20T01:26:33;13.10;99.90
41310;DHT22;27057;51.438;-0.010;2022-12-20T01:29:00;13.10;99.90
41310;DHT22;27057;51.438;-0.010;2022-12-20T01:31:31;13.10;99.90
41310;DHT22;27057;51.438;-0.010;2022-12-20T01:33:59;13.10;99.90
41310;DHT22;27057;51.438;-0.010;2022-12-20T01:36:30;13.10;99.90
41310;DHT22;27057;51.438;-0.010;2022-12-20T01:39:12;13.10;99.90
41310;DHT22;27057;51.438;-0.010;2022-12-20T01:41:41;13.10;99.90
41310;DHT22;27057;51.438;-0.010;2022-12-20T01:46:50;13.00;99.90
41310;DHT22;27057;51.438;-0.010;2022-12-20T01:49:27;13.00;99.90
41310;DHT22;27057;51.438;-0.010;2022-12-20T01:52:08;13.00;99.90
41310;DHT22;27057;51.438;-0.010;2022-12-20T01:54:44;13.00;99.90
41310;DHT22;27057;51.438;-0.010;2022-12-20T01:57:20;13.00;99.90
41310;DHT22;27057;51.438;-0.010;2022-12-20T01:59:49;13.00;99.90
41310;DHT22;27057;51.438;-0.010;2022-12-20T02:02:19;13.10;99.90
41310;DHT22;27057;51.438;-0.010;2022-12-20T02:04:47;13.10;99.90
41310;DHT22;27057;51.438;-0.010;2022-12-20T02:07:19;13.10;99.90
41310;DHT22;27057;51.438;-0.010;2022-12-20T02:09:48;13.20;99.90
41310;DHT22;27057;51.438;-0.010;2022-12-20T02:12:23;13.10;99.90
41310;DHT22;27057;51.438;-0.010;2022-12-20T02:30:56;13.10;99.90
41310;DHT22;27057;51.438;-0.010;2022-12-20T02:33:27;13.10;99.90
41310;DHT22;27057;51.438;-0.010;2022-12-20T02:35:54;13.10;99.90
41310;DHT22;27057;51.438;-0.010;2022-12-20T02:38:36;13.10;99.90
41310;DHT22;27057;51.438;-0.010;2022-12-20T02:41:16;13.10;99.90
41310;DHT22;27057;51.438;-0.010;2022-12-20T02:43:48;13.10;99.90
41310;DHT22;27057;51.438;-0.010;2022-12-20T02:46:38;13.10;99.90
41310;DHT22;27057;51.438;-0.010;2022-12-20T02:49:12;13.10;99.90
41310;DHT22;27057;51.438;-0.010;2022-12-20T02:51:43;13.10;99.90
41310;DHT22;27057;51.438;-0.010;2022-12-20T02:54:12;13.10;99.90
41310;DHT22;27057;51.438;-0.010;2022-12-20T02:56:44;13.00;99.90
41310;DHT22;27057;51.438;-0.010;2022-12-20T02:59:25;13.30;99.90
41310;DHT22;27057;51.438;-0.010;2022-12-20T03:01:56;12.60;99.90
41310;DHT22;27057;51.438;-0.010;2022-12-20T03:04:30;13.00;99.90
41310;DHT22;27057;51.438;-0.010;2022-12-20T03:07:08;13.00;99.90
41310;DHT22;27057;51.438;-0.010;2022-12-20T03:09:38;12.90;99.90
41310;DHT22;27057;51.438;-0.010;2022-12-20T03:12:07;13.10;99.90
41310;DHT22;27057;51.438;-0.010;2022-12-20T03:14:39;12.90;99.90
41310;DHT22;27057;51.438;-0.010;2022-12-20T03:17:09;12.90;99.90
41310;DHT22;27057;51.438;-0.010;2022-12-20T03:19:37;13.00;99.90
41310;DHT22;27057;51.438;-0.010;2022-12-20T03:22:05;13.00;99.90
41310;DHT22;27057;51.438;-0.010;2022-12-20T03:24:33;13.00;99.90
41310;DHT22;27057;51.438;-0.010;2022-12-20T03:27:04;13.00;99.90
41310;DHT22;27057;51.438;-0.010;2022-12-20T03:29:32;13.00;99.90
41310;DHT22;27057;51.438;-0.010;2022-12-20T03:31:59;13.00;99.90
41310;DHT22;27057;51.438;-0.010;2022-12-20T03:34:26;13.30;99.90
41310;DHT22;27057;51.438;-0.010;2022-12-20T03:36:54;13.00;99.90
41310;DHT22;27057;51.438;-0.010;2022-12-20T03:39:21;12.60;99.90
41310;DHT22;27057;51.438;-0.010;2022-12-20T03:41:50;12.90;99.90
41310;DHT22;27057;51.438;-0.010;2022-12-20T03:44:18;13.30;99.90
41310;DHT22;27057;51.438;-0.010;2022-12-20T03:46:45;12.90;99.90
41310;DHT22;27057;51.438;-0.010;2022-12-20T03:49:13;12.90;99.90
41310;DHT22;27057;51.438;-0.010;2022-12-20T03:51:45;13.00;99.90
41310;DHT22;27057;51.438;-0.010;2022-12-20T03:54:13;13.10;99.90
41310;DHT22;27057;51.438;-0.010;2022-12-20T03:57:06;13.00;99.90
41310;DHT22;27057;51.438;-0.010;2022-12-20T03:59:34;13.20;99.90
41310;DHT22;27057;51.438;-0.010;2022-12-20T04:02:03;13.20;99.90
41310;DHT22;27057;51.438;-0.010;2022-12-20T04:04:31;13.00;99.90
41310;DHT22;27057;51.438;-0.010;2022-12-20T04:06:58;13.00;99.90
41310;DHT22;27057;51.438;-0.010;2022-12-20T04:09:26;13.20;99.90
41310;DHT22;27057;51.438;-0.010;2022-12-20T04:12:01;13.10;99.90
41310;DHT22;27057;51.438;-0.010;2022-12-20T04:14:30;13.10;99.90
41310;DHT22;27057;51.438;-0.010;2022-12-20T04:16:58;13.10;99.90
41310;DHT22;27057;51.438;-0.010;2022-12-20T04:19:26;13.10;99.90
41310;DHT22;27057;51.438;-0.010;2022-12-20T04:21:54;13.00;99.90
41310;DHT22;27057;51.438;-0.010;2022-12-20T04:24:38;13.00;99.90
41310;DHT22;27057;51.438;-0.010;2022-12-20T04:27:16;12.90;99.90
41310;DHT22;27057;51.438;-0.010;2022-12-20T04:29:44;12.90;99.90
41310;DHT22;27057;51.438;-0.010;2022-12-20T04:32:15;12.90;99.90
41310;DHT22;27057;51.438;-0.010;2022-12-20T04:34:42;12.90;99.90
41310;DHT22;27057;51.438;-0.010;2022-12-20T04:37:10;12.80;99.90
41310;DHT22;27057;51.438;-0.010;2022-12-20T04:39:44;12.80;99.90
41310;DHT22;27057;51.438;-0.010;2022-12-20T04:42:21;12.80;99.90
41310;DHT22;27057;51.438;-0.010;2022-12-20T04:44:50;12.80;99.90
41310;DHT22;27057;51.438;-0.010;2022-12-20T04:47:23;12.70;99.90
41310;DHT22;27057;51.438;-0.010;2022-12-20T04:49:51;12.80;99.90
41310;DHT22;27057;51.438;-0.010;2022-12-20T04:52:19;12.80;99.90
41310;DHT22;27057;51.438;-0.010;2022-12-20T04:55:13;12.80;99.90
41310;DHT22;27057;51.438;-0.010;2022-12-20T04:57:41;12.80;99.90
41310;DHT22;27057;51.438;-0.010;2022-12-20T05:00:09;13.00;99.90
41310;DHT22;27057;51.438;-0.010;2022-12-20T05:02:41;12.80;99.90
41310;DHT22;27057;51.438;-0.010;2022-12-20T05:05:12;12.80;99.90
41310;DHT22;27057;51.438;-0.010;2022-12-20T05:07:46;12.80;99.90
41310;DHT22;27057;51.438;-0.010;2022-12-20T05:10:13;13.20;99.90
41310;DHT22;27057;51.438;-0.010;2022-12-20T05:12:42;12.90;99.90
41310;DHT22;27057;51.438;-0.010;2022-12-20T05:15:16;12.90;99.90
41310;DHT22;27057;51.438;-0.010;2022-12-20T05:17:44;13.00;99.90
41310;DHT22;27057;51.438;-0.010;2022-12-20T05:20:12;13.10;99.90
41310;DHT22;27057;51.438;-0.010;2022-12-20T05:22:41;12.90;99.90
41310;DHT22;27057;51.438;-0.010;2022-12-20T05:25:27;13.00;99.90
41310;DHT22;27057;51.438;-0.010;2022-12-20T05:28:15;13.00;99.90
41310;DHT22;27057;51.438;-0.010;2022-12-20T05:30:42;12.90;99.90
41310;DHT22;27057;51.438;-0.010;2022-12-20T05:33:10;12.90;99.90
41310;DHT22;27057;51.438;-0.010;2022-12-20T05:35:41;13.20;99.90
41310;DHT22;27057;51.438;-0.010;2022-12-20T05:38:11;12.90;99.90
41310;DHT22;27057;51.438;-0.010;2022-12-20T05:40:39;12.80;99.90
41310;DHT22;27057;51.438;-0.010;2022-12-20T05:43:08;13.10;99.90
41310;DHT22;27057;51.438;-0.010;2022-12-20T05:45:46;12.80;99.90
41310;DHT22;27057;51.438;-0.010;2022-12-20T05:48:18;12.80;99.90
41310;DHT22;27057;51.438;-0.010;2022-12-20T05:50:46;12.90;99.90
41310;DHT22;27057;51.438;-0.010;2022-12-20T05:53:26;13.00;99.90
41310;DHT22;27057;51.438;-0.010;2022-12-20T05:55:57;12.90;99.90
41310;DHT22;27057;51.438;-0.010;2022-12-20T05:58:28;12.80;99.90
41310;DHT22;27057;51.438;-0.010;2022-12-20T06:01:00;12.90;99.90
41310;DHT22;27057;51.438;-0.010;2022-12-20T06:03:31;12.90;99.90
41310;DHT22;27057;51.438;-0.010;2022-12-20T06:06:00;12.80;99.90
41310;DHT22;27057;51.438;-0.010;2022-12-20T06:08:30;12.70;99.90
41310;DHT22;27057;51.438;-0.010;2022-12-20T06:11:00;12.70;99.90
41310;DHT22;27057;51.438;-0.010;2022-12-20T06:13:35;13.30;99.90
41310;DHT22;27057;51.438;-0.010;2022-12-20T06:16:02;12.60;99.90
41310;DHT22;27057;51.438;-0.010;2022-12-20T06:18:31;12.60;99.90
41310;DHT22;27057;51.438;-0.010;2022-12-20T06:21:01;12.70;99.90
41310;DHT22;27057;51.438;-0.010;2022-12-20T06:23:28;12.70;99.90
41310;DHT22;27057;51.438;-0.010;2022-12-20T06:26:06;12.80;99.90
41310;DHT22;27057;51.438;-0.010;2022-12-20T06:28:41;12.80;99.90
41310;DHT22;27057;51.438;-0.010;2022-12-20T06:31:09;13.00;99.90
41310;DHT22;27057;51.438;-0.010;2022-12-20T06:33:41;12.80;99.90
41310;DHT22;27057;51.438;-0.010;2022-12-20T06:36:09;12.90;99.90
41310;DHT22;27057;51.438;-0.010;2022-12-20T06:38:36;12.90;99.90
41310;DHT22;27057;51.438;-0.010;2022-12-20T06:41:04;12.80;99.90
41310;DHT22;27057;51.438;-0.010;2022-12-20T06:43:32;12.80;99.90
41310;DHT22;27057;51.438;-0.010;2022-12-20T06:45:59;12.80;99.90
41310;DHT22;27057;51.438;-0.010;2022-12-20T06:48:27;12.90;99.90
41310;DHT22;27057;51.438;-0.010;2022-12-20T06:50:54;12.90;99.90
41310;DHT22;27057;51.438;-0.010;2022-12-20T06:53:24;12.80;99.90
41310;DHT22;27057;51.438;-0.010;2022-12-20T06:55:51;12.70;99.90
41310;DHT22;27057;51.438;-0.010;2022-12-20T06:58:20;12.70;99.90
41310;DHT22;27057;51.438;-0.010;2022-12-20T07:00:48;12.70;99.90
41310;DHT22;27057;51.438;-0.010;2022-12-20T07:03:16;13.00;99.90
41310;DHT22;27057;51.438;-0.010;2022-12-20T07:05:43;12.70;99.90
41310;DHT22;27057;51.438;-0.010;2022-12-20T07:08:10;12.70;99.90
41310;DHT22;27057;51.438;-0.010;2022-12-20T07:10:38;12.50;99.90
41310;DHT22;27057;51.438;-0.010;2022-12-20T07:13:05;12.60;99.90
41310;DHT22;27057;51.438;-0.010;2022-12-20T07:15:32;12.50;99.90
41310;DHT22;27057;51.438;-0.010;2022-12-20T07:17:59;12.50;99.90
41310;DHT22;27057;51.438;-0.010;2022-12-20T07:20:27;13.00;99.90
41310;DHT22;27057;51.438;-0.010;2022-12-20T07:22:54;12.20;99.90
41310;DHT22;27057;51.438;-0.010;2022-12-20T07:25:22;12.20;99.90
41310;DHT22;27057;51.438;-0.010;2022-12-20T07:27:50;12.10;99.90
41310;DHT22;27057;51.438;-0.010;2022-12-20T07:30:19;12.00;99.90
41310;DHT22;27057;51.438;-0.010;2022-12-20T07:32:47;11.90;99.90
41310;DHT22;27057;51.438;-0.010;2022-12-20T07:35:15;11.90;99.90
41310;DHT22;27057;51.438;-0.010;2022-12-20T07:37:42;11.80;99.90
41310;DHT22;27057;51.438;-0.010;2022-12-20T07:40:10;11.70;99.90
41310;DHT22;27057;51.438;-0.010;2022-12-20T07:42:38;11.70;99.90
41310;DHT22;27057;51.438;-0.010;2022-12-20T07:45:14;11.70;99.90
41310;DHT22;27057;51.438;-0.010;2022-12-20T07:47:41;11.60;99.90
41310;DHT22;27057;51.438;-0.010;2022-12-20T07:50:10;11.50;99.90
41310;DHT22;27057;51.438;-0.010;2022-12-20T07:52:39;11.50;99.90
41310;DHT22;27057;51.438;-0.010;2022-12-20T07:55:10;11.40;99.90
41310;DHT22;27057;51.438;-0.010;2022-12-20T07:57:52;11.40;99.90
41310;DHT22;27057;51.438;-0.010;2022-12-20T08:00:21;11.40;99.90
41310;DHT22;27057;51.438;-0.010;2022-12-20T08:02:54;11.30;99.90
41310;DHT22;27057;51.438;-0.010;2022-12-20T08:05:25;11.30;99.90
41310;DHT22;27057;51.438;-0.010;2022-12-20T08:07:55;11.30;99.90
41310;DHT22;27057;51.438;-0.010;2022-12-20T08:10:26;11.20;99.90
41310;DHT22;27057;51.438;-0.010;2022-12-20T08:12:54;11.20;99.90
41310;DHT22;27057;51.438;-0.010;2022-12-20T08:15:22;11.10;99.90
41310;DHT22;27057;51.438;-0.010;2022-12-20T08:17:50;11.10;99.90
41310;DHT22;27057;51.438;-0.010;2022-12-20T08:20:18;11.10;99.90
41310;DHT22;27057;51.438;-0.010;2022-12-20T08:22:45;11.10;99.90
41310;DHT22;27057;51.438;-0.010;2022-12-20T08:25:12;11.10;99.90
41310;DHT22;27057;51.438;-0.010;2022-12-20T08:27:40;11.10;99.90
41310;DHT22;27057;51.438;-0.010;2022-12-20T08:30:08;11.00;99.90
41310;DHT22;27057;51.438;-0.010;2022-12-20T08:32:37;11.00;99.90
41310;DHT22;27057;51.438;-0.010;2022-12-20T08:35:05;11.00;99.90
41310;DHT22;27057;51.438;-0.010;2022-12-20T08:37:32;11.00;99.90
41310;DHT22;27057;51.438;-0.010;2022-12-20T08:40:00;11.00;99.90
41310;DHT22;27057;51.438;-0.010;2022-12-20T08:42:28;11.00;99.90
41310;DHT22;27057;51.438;-0.010;2022-12-20T08:44:55;10.90;99.90
41310;DHT22;27057;51.438;-0.010;2022-12-20T08:47:23;10.90;99.90
41310;DHT22;27057;51.438;-0.010;2022-12-20T08:49:50;10.90;99.90
41310;DHT22;27057;51.438;-0.010;2022-12-20T08:52:17;10.80;99.90
41310;DHT22;27057;51.438;-0.010;2022-12-20T08:54:45;10.80;99.90
41310;DHT22;27057;51.438;-0.010;2022-12-20T08:57:12;10.80;99.90
41310;DHT22;27057;51.438;-0.010;2022-12-20T08:59:39;10.80;99.90
41310;DHT22;27057;51.438;-0.010;2022-12-20T09:02:07;10.80;99.90
41310;DHT22;27057;51.438;-0.010;2022-12-20T09:04:35;10.70;99.90
41310;DHT22;27057;51.438;-0.010;2022-12-20T09:07:02;10.70;99.90
41310;DHT22;27057;51.438;-0.010;2022-12-20T09:09:29;10.60;99.90
41310;DHT22;27057;51.438;-0.010;2022-12-20T09:11:57;10.60;99.90
41310;DHT22;27057;51.438;-0.010;2022-12-20T09:14:24;10.60;99.90
41310;DHT22;27057;51.438;-0.010;2022-12-20T09:16:51;10.50;99.90
41310;DHT22;27057;51.438;-0.010;2022-12-20T09:19:19;10.50;99.90
41310;DHT22;27057;51.438;-0.010;2022-12-20T09:21:46;10.50;99.90
41310;DHT22;27057;51.438;-0.010;2022-12-20T09:24:13;10.50;99.90
41310;DHT22;27057;51.438;-0.010;2022-12-20T09:26:41;10.40;99.90
41310;DHT22;27057;51.438;-0.010;2022-12-20T09:29:11;10.40;99.90
41310;DHT22;27057;51.438;-0.010;2022-12-20T09:31:39;10.40;99.90
41310;DHT22;27057;51.438;-0.010;2022-12-20T09:34:08;10.30;99.90
41310;DHT22;27057;51.438;-0.010;2022-12-20T09:36:36;10.40;99.90
41310;DHT22;27057;51.438;-0.010;2022-12-20T09:39:04;10.30;99.90
41310;DHT22;27057;51.438;-0.010;2022-12-20T09:41:39;10.30;99.90
41310;DHT22;27057;51.438;-0.010;2022-12-20T09:46:54;10.30;99.90
41310;DHT22;27057;51.438;-0.010;2022-12-20T09:49:28;10.20;99.90
41310;DHT22;27057;51.438;-0.010;2022-12-20T09:52:28;10.20;99.90
41310;DHT22;27057;51.438;-0.010;2022-12-20T10:00:20;10.10;99.90
41310;DHT22;27057;51.438;-0.010;2022-12-20T10:02:48;10.10;99.90
41310;DHT22;27057;51.438;-0.010;2022-12-20T10:08:22;10.00;99.90
41310;DHT22;27057;51.438;-0.010;2022-12-20T10:11:00;10.10;99.90
41310;DHT22;27057;51.438;-0.010;2022-12-20T10:19:33;10.10;99.90
41310;DHT22;27057;51.438;-0.010;2022-12-20T10:21:44;10.10;99.90
41310;DHT22;27057;51.438;-0.010;2022-12-20T10:24:18;10.10;99.90
41310;DHT22;27057;51.438;-0.010;2022-12-20T10:26:49;10.10;99.90
41310;DHT22;27057;51.438;-0.010;2022-12-20T10:29:18;10.20;99.90
41310;DHT22;27057;51.438;-0.010;2022-12-20T10:31:52;10.10;99.90
41310;DHT22;27057;51.438;-0.010;2022-12-20T10:34:21;10.10;99.90
41310;DHT22;27057;51.438;-0.010;2022-12-20T10:37:13;10.10;99.90
41310;DHT22;27057;51.438;-0.010;2022-12-20T10:39:46;10.20;99.90
41310;DHT22;27057;51.438;-0.010;2022-12-20T10:44:58;10.30;99.90
41310;DHT22;27057;51.438;-0.010;2022-12-20T10:47:39;10.30;99.90
41310;DHT22;27057;51.438;-0.010;2022-12-20T10:50:18;10.40;99.90
41310;DHT22;27057;51.438;-0.010;2022-12-20T10:53:18;10.40;99.90
41310;DHT22;27057;51.438;-0.010;2022-12-20T10:55:46;10.40;99.90
41310;DHT22;27057;51.438;-0.010;2022-12-20T10:58:31;10.40;99.90
41310;DHT22;27057;51.438;-0.010;2022-12-20T11:01:04;10.50;99.90
41310;DHT22;27057;51.438;-0.010;2022-12-20T11:03:32;10.50;99.90
41310;DHT22;27057;51.438;-0.010;2022-12-20T11:06:01;10.50;99.90
41310;DHT22;27057;51.438;-0.010;2022-12-20T11:08:31;10.60;99.90
41310;DHT22;27057;51.438;-0.010;2022-12-20T11:11:20;10.70;99.90
41310;DHT22;27057;51.438;-0.010;2022-12-20T11:13:49;10.80;99.90
41310;DHT22;27057;51.438;-0.010;2022-12-20T11:16:35;11.10;99.90
41310;DHT22;27057;51.438;-0.010;2022-12-20T11:25:15;11.60;99.90
41310;DHT22;27057;51.438;-0.010;2022-12-20T11:30:33;11.60;99.90
41310;DHT22;27057;51.438;-0.010;2022-12-20T11:38:21;12.00;99.90
41310;DHT22;27057;51.438;-0.010;2022-12-20T11:44:27;12.30;99.90
41310;DHT22;27057;51.438;-0.010;2022-12-20T11:52:50;12.70;99.90
41310;DHT22;27057;51.438;-0.010;2022-12-20T11:55:25;12.70;99.90
41310;DHT22;27057;51.438;-0.010;2022-12-20T12:01:02;12.60;99.90
41310;DHT22;27057;51.438;-0.010;2022-12-20T12:03:35;12.70;99.90
41310;DHT22;27057;51.438;-0.010;2022-12-20T12:06:10;13.00;99.90
41310;DHT22;27057;51.438;-0.010;2022-12-20T12:08:54;13.10;99.90
41310;DHT22;27057;51.438;-0.010;2022-12-20T12:11:28;13.30;99.90
41310;DHT22;27057;51.438;-0.010;2022-12-20T12:17:17;13.30;99.90
41310;DHT22;27057;51.438;-0.010;2022-12-20T12:19:49;13.30;99.90
41310;DHT22;27057;51.438;-0.010;2022-12-20T12:22:26;13.20;99.90
41310;DHT22;27057;51.438;-0.010;2022-12-20T12:24:57;13.10;99.90
41310;DHT22;27057;51.438;-0.010;2022-12-20T12:27:27;13.00;99.90
41310;DHT22;27057;51.438;-0.010;2022-12-20T12:29:56;12.70;99.90
41310;DHT22;27057;51.438;-0.010;2022-12-20T12:32:37;12.70;99.90
41310;DHT22;27057;51.438;-0.010;2022-12-20T12:35:36;12.60;99.90
41310;DHT22;27057;51.438;-0.010;2022-12-20T12:43:45;12.50;99.90
41310;DHT22;27057;51.438;-0.010;2022-12-20T12:46:26;12.60;99.90
41310;DHT22;27057;51.438;-0.010;2022-12-20T12:51:27;13.10;99.90
41310;DHT22;27057;51.438;-0.010;2022-12-20T12:56:43;13.70;99.90
41310;DHT22;27057;51.438;-0.010;2022-12-20T13:04:56;14.10;99.90
41310;DHT22;27057;51.438;-0.010;2022-12-20T13:12:52;14.10;99.90
41310;DHT22;27057;51.438;-0.010;2022-12-20T13:17:59;13.90;99.90
41310;DHT22;27057;51.438;-0.010;2022-12-20T13:20:32;14.00;99.90
41310;DHT22;27057;51.438;-0.010;2022-12-20T13:25:44;14.40;99.90
41310;DHT22;27057;51.438;-0.010;2022-12-20T13:30:44;14.80;99.90
41310;DHT22;27057;51.438;-0.010;2022-12-20T13:47:01;14.70;99.90
41310;DHT22;27057;51.438;-0.010;2022-12-20T13:49:38;15.00;99.90
41310;DHT22;27057;51.438;-0.010;2022-12-20T13:54:58;15.00;99.90
41310;DHT22;27057;51.438;-0.010;2022-12-20T13:57:40;14.70;99.90
41310;DHT22;27057;51.438;-0.010;2022-12-20T14:00:23;14.60;99.90
41310;DHT22;27057;51.438;-0.010;2022-12-20T14:02:54;14.40;99.90
41310;DHT22;27057;51.438;-0.010;2022-12-20T14:05:30;14.30;99.90
41310;DHT22;27057;51.438;-0.010;2022-12-20T14:08:06;14.10;99.90
41310;DHT22;27057;51.438;-0.010;2022-12-20T14:10:35;14.00;99.90
41310;DHT22;27057;51.438;-0.010;2022-12-20T14:13:12;14.10;99.90
41310;DHT22;27057;51.438;-0.010;2022-12-20T14:15:43;14.30;99.90
41310;DHT22;27057;51.438;-0.010;2022-12-20T14:18:19;14.40;99.90
41310;DHT22;27057;51.438;-0.010;2022-12-20T14:20:50;14.60;99.90
41310;DHT22;27057;51.438;-0.010;2022-12-20T14:23:20;14.60;99.90
41310;DHT22;27057;51.438;-0.010;2022-12-20T14:25:57;14.70;99.90
41310;DHT22;27057;51.438;-0.010;2022-12-20T14:31:27;14.40;99.90
41310;DHT22;27057;51.438;-0.010;2022-12-20T14:34:06;14.20;99.90
41310;DHT22;27057;51.438;-0.010;2022-12-20T14:36:43;14.20;99.90
41310;DHT22;27057;51.438;-0.010;2022-12-20T14:42:00;14.40;99.90
41310;DHT22;27057;51.438;-0.010;2022-12-20T14:44:29;14.20;99.90
41310;DHT22;27057;51.438;-0.010;2022-12-20T14:47:03;14.10;99.90
41310;DHT22;27057;51.438;-0.010;2022-12-20T14:49:38;13.80;99.90
41310;DHT22;27057;51.438;-0.010;2022-12-20T14:52:16;13.70;99.90
41310;DHT22;27057;51.438;-0.010;2022-12-20T14:54:55;13.40;99.90
41310;DHT22;27057;51.438;-0.010;2022-12-20T15:08:24;12.10;99.90
41310;DHT22;27057;51.438;-0.010;2022-12-20T15:13:40;12.00;99.90
41310;DHT22;27057;51.438;-0.010;2022-12-20T15:16:23;11.90;99.90
41310;DHT22;27057;51.438;-0.010;2022-12-20T15:18:53;11.80;99.90
41310;DHT22;27057;51.438;-0.010;2022-12-20T15:21:39;12.40;99.90
41310;DHT22;27057;51.438;-0.010;2022-12-20T15:24:09;11.50;99.90
41310;DHT22;27057;51.438;-0.010;2022-12-20T15:26:37;11.50;99.90
41310;DHT22;27057;51.438;-0.010;2022-12-20T15:29:05;11.40;99.90
41310;DHT22;27057;51.438;-0.010;2022-12-20T15:31:34;11.40;99.90
41310;DHT22;27057;51.438;-0.010;2022-12-20T15:34:14;11.30;99.90
41310;DHT22;27057;51.438;-0.010;2022-12-20T15:36:44;11.10;99.90
41310;DHT22;27057;51.438;-0.010;2022-12-20T15:39:12;11.20;99.90
41310;DHT22;27057;51.438;-0.010;2022-12-20T15:41:45;11.10;99.90
41310;DHT22;27057;51.438;-0.010;2022-12-20T15:44:32;10.90;99.90
41310;DHT22;27057;51.438;-0.010;2022-12-20T15:47:02;10.70;99.90
41310;DHT22;27057;51.438;-0.010;2022-12-20T15:49:30;10.90;99.90
41310;DHT22;27057;51.438;-0.010;2022-12-20T15:51:58;10.80;99.90
41310;DHT22;27057;51.438;-0.010;2022-12-20T15:54:35;10.60;99.90
41310;DHT22;27057;51.438;-0.010;2022-12-20T15:57:04;10.70;99.90
41310;DHT22;27057;51.438;-0.010;2022-12-20T15:59:34;10.60;99.90
41310;DHT22;27057;51.438;-0.010;2022-12-20T16:02:24;10.50;99.90
41310;DHT22;27057;51.438;-0.010;2022-12-20T16:04:52;10.50;99.90
41310;DHT22;27057;51.438;-0.010;2022-12-20T16:07:20;10.40;99.90
41310;DHT22;27057;51.438;-0.010;2022-12-20T16:09:47;10.40;99.90
41310;DHT22;27057;51.438;-0.010;2022-12-20T16:12:18;10.40;99.90
41310;DHT22;27057;51.438;-0.010;2022-12-20T16:14:47;10.30;99.90
41310;DHT22;27057;51.438;-0.010;2022-12-20T16:17:15;10.30;99.90
41310;DHT22;27057;51.438;-0.010;2022-12-20T16:19:43;10.20;99.90
41310;DHT22;27057;51.438;-0.010;2022-12-20T16:22:23;10.00;99.90
41310;DHT22;27057;51.438;-0.010;2022-12-20T16:24:50;10.10;99.90
41310;DHT22;27057;51.438;-0.010;2022-12-20T16:27:18;10.10;99.90
41310;DHT22;27057;51.438;-0.010;2022-12-20T16:29:46;10.00;99.90
41310;DHT22;27057;51.438;-0.010;2022-12-20T16:32:15;10.00;99.90
41310;DHT22;27057;51.438;-0.010;2022-12-20T16:34:44;9.90;99.90
41310;DHT22;27057;51.438;-0.010;2022-12-20T16:37:11;9.80;99.90
41310;DHT22;27057;51.438;-0.010;2022-12-20T16:39:39;10.10;99.90
41310;DHT22;27057;51.438;-0.010;2022-12-20T16:42:17;9.80;99.90
41310;DHT22;27057;51.438;-0.010;2022-12-20T16:44:50;9.70;99.90
41310;DHT22;27057;51.438;-0.010;2022-12-20T16:47:18;9.50;99.90
41310;DHT22;27057;51.438;-0.010;2022-12-20T16:49:45;9.50;99.90
41310;DHT22;27057;51.438;-0.010;2022-12-20T16:52:19;9.60;99.90
41310;DHT22;27057;51.438;-0.010;2022-12-20T16:54:48;9.70;99.90
41310;DHT22;27057;51.438;-0.010;2022-12-20T16:57:16;9.60;99.90
41310;DHT22;27057;51.438;-0.010;2022-12-20T16:59:43;9.60;99.90
41310;DHT22;27057;51.438;-0.010;2022-12-20T17:02:29;9.50;99.90
41310;DHT22;27057;51.438;-0.010;2022-12-20T17:04:58;9.50;99.90
41310;DHT22;27057;51.438;-0.010;2022-12-20T17:07:26;10.20;99.90
41310;DHT22;27057;51.438;-0.010;2022-12-20T17:09:53;9.50;99.90
41310;DHT22;27057;51.438;-0.010;2022-12-20T17:12:21;9.40;99.90
41310;DHT22;27057;51.438;-0.010;2022-12-20T17:14:49;9.40;99.90
41310;DHT22;27057;51.438;-0.010;2022-12-20T17:17:16;9.20;99.90
41310;DHT22;27057;51.438;-0.010;2022-12-20T17:19:43;9.30;99.90
41310;DHT22;27057;51.438;-0.010;2022-12-20T17:22:11;9.20;99.90
41310;DHT22;27057;51.438;-0.010;2022-12-20T17:24:57;9.20;99.90
41310;DHT22;27057;51.438;-0.010;2022-12-20T17:27:24;9.60;99.90
41310;DHT22;27057;51.438;-0.010;2022-12-20T17:29:51;9.20;99.90
41310;DHT22;27057;51.438;-0.010;2022-12-20T17:32:21;9.00;99.90
41310;DHT22;27057;51.438;-0.010;2022-12-20T17:34:49;9.10;99.90
41310;DHT22;27057;51.438;-0.010;2022-12-20T17:37:16;9.10;99.90
41310;DHT22;27057;51.438;-0.010;2022-12-20T17:39:44;9.00;99.90
41310;DHT22;27057;51.438;-0.010;2022-12-20T17:42:12;9.00;99.90
41310;DHT22;27057;51.438;-0.010;2022-12-20T17:44:39;9.00;99.90
41310;DHT22;27057;51.438;-0.010;2022-12-20T17:47:07;9.00;99.90
41310;DHT22;27057;51.438;-0.010;2022-12-20T17:49:34;8.90;99.90
41310;DHT22;27057;51.438;-0.010;2022-12-20T17:52:01;9.00;99.90
41310;DHT22;27057;51.438;-0.010;2022-12-20T17:54:29;8.90;99.90
41310;DHT22;27057;51.438;-0.010;2022-12-20T17:57:14;8.90;99.90
41310;DHT22;27057;51.438;-0.010;2022-12-20T17:59:42;9.00;99.90